createdAt,value
2019-05-01T00:00:16.301Z,12.1
2019-05-01T00:05:03.446Z,12.3
2019-05-01T00:09:50.482Z,11.1
2019-05-01T00:14:37.508Z,11.1
2019-05-01T00:19:24.780Z,12.6
2019-05-01T00:24:12.427Z,11.2
2019-05-01T00:28:59.552Z,11.8
2019-05-01T00:33:46.673Z,10.8
2019-05-01T00:38:35.687Z,11.1
2019-05-01T00:43:23.059Z,11.7
2019-05-01T00:48:10.853Z,10.9
2019-05-01T00:52:58.971Z,10.4
2019-05-01T00:57:46.457Z,13.2
2019-05-01T01:02:33.512Z,12.6
2019-05-01T01:07:20.275Z,11.8
2019-05-01T01:12:08.136Z,12.9
2019-05-01T01:16:55.286Z,13.9
2019-05-01T01:21:43.290Z,11.1
2019-05-01T01:26:31.517Z,12.4
2019-05-01T01:31:21.067Z,13.8
2019-05-01T01:36:08.187Z,11.8
2019-05-01T01:40:55.302Z,14.3
2019-05-01T01:45:42.574Z,13.6
2019-05-01T01:50:29.440Z,12.6
2019-05-01T01:55:16.683Z,11.1
2019-05-01T02:00:04.422Z,11.8
2019-05-01T02:04:51.305Z,12.2
2019-05-01T02:09:38.399Z,13
2019-05-01T02:14:25.306Z,13.7
2019-05-01T02:19:12.296Z,12.7
2019-05-01T02:23:59.550Z,13.2
2019-05-01T02:31:26.692Z,11.3
2019-05-01T02:36:15.600Z,13.3
2019-05-01T02:41:03.125Z,11.2
2019-05-01T02:45:50.155Z,13
2019-05-01T02:50:36.933Z,11.6
2019-05-01T02:55:24.657Z,11.9
2019-05-01T03:00:11.979Z,12
2019-05-01T03:04:58.949Z,12
2019-05-01T03:09:46.213Z,12
2019-05-01T03:14:33.886Z,12
2019-05-01T03:19:20.991Z,12.4
2019-05-01T03:25:11.198Z,9.8
2019-05-01T03:29:58.101Z,12.6
2019-05-01T03:34:51.899Z,12.2
2019-05-01T03:39:40.505Z,14
2019-05-01T03:44:27.458Z,11.7
2019-05-01T03:49:15.662Z,13.1
2019-05-01T03:54:02.766Z,11.3
2019-05-01T03:58:49.649Z,10.7
2019-05-01T04:03:36.341Z,12.9
2019-05-01T04:08:23.389Z,12
2019-05-01T04:13:10.857Z,15
2019-05-01T04:20:36.430Z,11.1
2019-05-01T04:25:23.725Z,12.4
2019-05-01T04:30:11.041Z,13.6
2019-05-01T04:34:58.051Z,13
2019-05-01T04:39:44.799Z,13.4
2019-05-01T04:44:31.914Z,12.7
2019-05-01T04:49:18.731Z,13
2019-05-01T04:54:08.013Z,13.1
2019-05-01T04:58:54.874Z,14.5
2019-05-01T05:03:43.062Z,17.4
2019-05-01T05:11:07.059Z,12.1
2019-05-01T05:15:53.822Z,11
2019-05-01T05:20:41.338Z,13.1
2019-05-01T05:25:28.352Z,11.8
2019-05-01T05:30:15.448Z,11.7
2019-05-01T05:35:02.840Z,13.2
2019-05-01T05:39:50.056Z,12.1
2019-05-01T05:44:37.468Z,11.2
2019-05-01T05:49:24.406Z,14.1
2019-05-01T05:54:13.753Z,12.2
2019-05-01T05:59:00.754Z,14.1
2019-05-01T06:03:47.730Z,11.8
2019-05-01T06:08:35.624Z,14.1
2019-05-01T06:13:23.112Z,12.4
2019-05-01T06:18:10.470Z,12.5
2019-05-01T06:22:57.336Z,11.9
2019-05-01T06:27:49.315Z,11.7
2019-05-01T06:32:39.939Z,11.3
2019-05-01T06:37:27.407Z,11.4
2019-05-01T06:42:15.539Z,10.6
2019-05-01T06:47:05.100Z,10.2
2019-05-01T06:51:53.189Z,10.4
2019-05-01T06:56:41.126Z,10.8
2019-05-01T07:01:27.831Z,12.3
2019-05-01T07:06:15.369Z,11.1
2019-05-01T07:11:02.392Z,10.1
2019-05-01T07:15:49.668Z,9.2
2019-05-01T07:20:38.629Z,8.4
2019-05-01T07:25:25.847Z,9.5
2019-05-01T07:30:15.864Z,7.6
2019-05-01T07:35:06.731Z,10.4
2019-05-01T07:39:54.248Z,10.3
2019-05-01T07:44:41.149Z,9.8
2019-05-01T07:49:28.369Z,8.9
2019-05-01T07:54:15.153Z,12.2
2019-05-01T07:59:02.249Z,7.6
2019-05-01T08:03:49.088Z,9.2
2019-05-01T08:08:39.603Z,8
2019-05-01T08:13:30.700Z,8.6
2019-05-01T08:18:24.145Z,10.1
2019-05-01T08:23:15.455Z,7.4
2019-05-01T08:28:02.364Z,6.8
2019-05-01T08:32:49.435Z,7.5
2019-05-01T08:37:36.528Z,8.7
2019-05-01T08:42:23.244Z,7.4
2019-05-01T08:47:10.148Z,6.9
2019-05-01T08:51:56.876Z,7.8
2019-05-01T08:56:44.995Z,7
2019-05-01T09:01:31.958Z,7.2
2019-05-01T09:06:19.197Z,7.4
2019-05-01T09:11:06.828Z,7.1
2019-05-01T09:15:54.699Z,9.2
2019-05-01T09:20:42.144Z,8.4
2019-05-01T09:25:30.939Z,19.1
2019-05-01T09:30:26.777Z,8.7
2019-05-01T09:35:15.812Z,8.1
2019-05-01T09:40:04.076Z,7.7
2019-05-01T09:44:55.491Z,8.4
2019-05-01T09:49:42.337Z,8.1
2019-05-01T09:54:29.676Z,7.2
2019-05-01T09:59:17.525Z,7.3
2019-05-01T10:04:06.432Z,7.9
2019-05-01T10:08:54.936Z,9.1
2019-05-01T10:13:42.271Z,7.7
2019-05-01T10:18:29.168Z,7.2
2019-05-01T10:23:18.409Z,11.6
2019-05-01T10:28:07.298Z,9.9
2019-05-01T10:32:59.696Z,8.2
2019-05-01T10:37:47.234Z,9.3
2019-05-01T10:42:34.187Z,11.3
2019-05-01T10:47:21.298Z,9.8
2019-05-01T10:52:14.196Z,10.6
2019-05-01T10:57:06.838Z,12.9
2019-05-01T11:01:54.938Z,13.1
2019-05-01T11:06:43.640Z,8.6
2019-05-01T11:11:31.374Z,9.2
2019-05-01T11:16:18.551Z,10.1
2019-05-01T11:21:05.788Z,8.8
2019-05-01T11:25:52.719Z,8.8
2019-05-01T11:30:40.924Z,10.1
2019-05-01T11:35:33.646Z,8.7
2019-05-01T11:40:20.916Z,10.6
2019-05-01T11:45:08.413Z,11.3
2019-05-01T11:49:55.800Z,9.9
2019-05-01T11:54:42.908Z,12.1
2019-05-01T11:59:32.585Z,12
2019-05-01T12:04:20.892Z,12.5
2019-05-01T12:09:08.535Z,10.7
2019-05-01T12:13:56.953Z,9.9
2019-05-01T12:18:43.770Z,11.3
2019-05-01T12:23:31.567Z,11
2019-05-01T12:28:18.557Z,11.2
2019-05-01T12:33:05.324Z,12.7
2019-05-01T12:37:55.269Z,13.3
2019-05-01T12:42:42.810Z,12.8
2019-05-01T12:47:30.410Z,12.3
2019-05-01T12:52:17.365Z,13.4
2019-05-01T12:57:04.318Z,16.1
2019-05-01T13:01:51.108Z,16.1
2019-05-01T13:06:48.842Z,15.8
2019-05-01T13:11:37.374Z,17.5
2019-05-01T13:16:25.225Z,16.3
2019-05-01T13:21:12.585Z,18.7
2019-05-01T13:25:59.772Z,18.3
2019-05-01T13:30:49.050Z,19.6
2019-05-01T13:35:36.160Z,21.3
2019-05-01T13:40:23.294Z,20.1
2019-05-01T13:45:10.406Z,23.8
2019-05-01T13:49:57.249Z,21.7
2019-05-01T13:54:44.294Z,26.6
2019-05-01T13:59:31.176Z,30.8
2019-05-01T14:04:21.385Z,34
2019-05-01T14:09:09.538Z,35.6
2019-05-01T14:13:59.382Z,31.8
2019-05-01T14:18:46.964Z,34.9
2019-05-01T14:23:34.589Z,38.6
2019-05-01T14:28:22.046Z,37.6
2019-05-01T14:33:09.414Z,39.2
2019-05-01T14:37:57.280Z,35.9
2019-05-01T14:42:44.612Z,34.8
2019-05-01T14:47:31.454Z,33.1
2019-05-01T14:52:18.945Z,36
2019-05-01T14:57:05.750Z,34.4
2019-05-01T15:01:53.134Z,35.1
2019-05-01T15:06:40.533Z,35.2
2019-05-01T15:11:27.399Z,35.6
2019-05-01T15:16:14.648Z,35.1
2019-05-01T15:21:02.421Z,36.3
2019-05-01T15:25:49.771Z,35.7
2019-05-01T15:30:36.758Z,31.2
2019-05-01T15:35:25.577Z,30.2
2019-05-01T15:40:13.271Z,34.5
2019-05-01T15:45:00.572Z,30.3
2019-05-01T15:49:47.966Z,27.7
2019-05-01T15:54:36.046Z,28.5
2019-05-01T15:59:25.415Z,29.1
2019-05-01T16:04:14.688Z,26.8
2019-05-01T16:09:01.796Z,28.3
2019-05-01T16:13:49.192Z,26.1
2019-05-01T16:18:36.768Z,26.1
2019-05-01T16:23:24.320Z,27.8
2019-05-01T16:28:11.138Z,24
2019-05-01T16:32:58.530Z,19.6
2019-05-01T16:37:45.787Z,22.4
2019-05-01T16:42:32.551Z,22.1
2019-05-01T16:47:19.511Z,22.6
2019-05-01T16:52:07.096Z,22.5
2019-05-01T16:56:54.375Z,21.2
2019-05-01T17:01:41.532Z,22.2
2019-05-01T17:06:28.657Z,25.6
2019-05-01T17:11:17.726Z,25.5
2019-05-01T17:16:04.705Z,26.3
2019-05-01T17:20:52.587Z,24.7
2019-05-01T17:25:40.887Z,24
2019-05-01T17:30:28.126Z,22.1
2019-05-01T17:35:15.685Z,24.1
2019-05-01T17:40:08.287Z,24.9
2019-05-01T17:44:55.924Z,26.6
2019-05-01T17:49:46.814Z,26.9
2019-05-01T17:54:34.069Z,26.5
2019-05-01T17:59:22.270Z,23.1
2019-05-01T18:04:14.685Z,26.7
2019-05-01T18:09:03.164Z,29
2019-05-01T18:13:56.861Z,30.8
2019-05-01T18:18:45.229Z,28
2019-05-01T18:23:32.017Z,29.8
2019-05-01T18:28:19.199Z,28.8
2019-05-01T18:33:06.026Z,27.4
2019-05-01T18:37:53.401Z,29.4
2019-05-01T18:42:40.533Z,29.5
2019-05-01T18:47:27.460Z,26.8
2019-05-01T18:52:14.571Z,27.2
2019-05-01T18:57:01.837Z,32.7
2019-05-01T19:01:49.723Z,31.3
2019-05-01T19:06:41.767Z,28.4
2019-05-01T19:11:31.336Z,29.3
2019-05-01T19:16:18.536Z,29.6
2019-05-01T19:21:05.797Z,28.9
2019-05-01T19:25:56.566Z,26.5
2019-05-01T19:30:48.548Z,25.4
2019-05-01T19:35:35.909Z,24.5
2019-05-01T19:40:25.212Z,18.7
2019-05-01T19:45:18.547Z,15.8
2019-05-01T19:50:07.520Z,19.6
2019-05-01T19:55:01.356Z,20.4
2019-05-01T19:59:53.193Z,17.5
2019-05-01T20:04:40.380Z,16.7
2019-05-01T20:09:27.986Z,17
2019-05-01T20:14:15.039Z,15.4
2019-05-01T20:19:01.916Z,17.5
2019-05-01T20:23:49.155Z,16.7
2019-05-01T20:28:37.370Z,14.6
2019-05-01T20:33:24.415Z,14.5
2019-05-01T20:38:11.249Z,14.1
2019-05-01T20:43:01.098Z,13.8
2019-05-01T20:47:54.366Z,14
2019-05-01T20:52:42.173Z,13.6
2019-05-01T20:57:45.506Z,13.6
2019-05-01T21:02:32.977Z,12.6
2019-05-01T21:07:21.383Z,14.6
2019-05-01T21:12:08.284Z,13.9
2019-05-01T21:16:55.686Z,15.3
2019-05-01T21:21:43.454Z,14.2
2019-05-01T21:26:33.435Z,15.4
2019-05-01T21:31:45.475Z,14.1
2019-05-01T21:36:32.564Z,13
2019-05-01T21:41:19.836Z,14.9
2019-05-01T21:46:06.762Z,15.2
2019-05-01T21:50:53.766Z,16.9
2019-05-01T21:55:45.586Z,15.5
2019-05-01T22:00:33.945Z,17
2019-05-01T22:05:21.222Z,13.9
2019-05-01T22:10:08.034Z,15.4
2019-05-01T22:14:54.990Z,15
2019-05-01T22:19:42.004Z,12.7
2019-05-01T22:24:28.769Z,16.1
2019-05-01T22:29:15.747Z,15.8
2019-05-01T22:34:02.847Z,15.1
2019-05-01T22:38:49.826Z,14.6
2019-05-01T22:43:37.497Z,16
2019-05-01T22:48:24.783Z,16.1
2019-05-01T22:54:48.931Z,16
2019-05-01T22:59:37.110Z,15
2019-05-01T23:04:23.835Z,14.8
2019-05-01T23:09:11.028Z,17.7
2019-05-01T23:13:58.216Z,19
2019-05-01T23:19:17.902Z,15.3
2019-05-01T23:24:06.480Z,13.8
2019-05-01T23:28:53.663Z,15.2
2019-05-01T23:33:40.410Z,14.4
2019-05-01T23:43:35.816Z,12.6
2019-05-01T23:48:22.519Z,12
2019-05-01T23:53:13.975Z,13.7
2019-05-01T23:58:03.318Z,14.2
